Time;durP1;ratioP1;P1;durP2;ratioP2;P2;SDS_P1;SDS_P2;PMS_P1;PMS_P2;Temp;Humidity;BMP_temperature;BMP_pressure;BME280_temperature;BME280_humidity;BME280_pressure;Samples;Min_cycle;Max_cycle;Signal;HPM_P1;HPM_P2
2022/05/17 00:01:30;;;;;;;2.22;1.02;;;;;;;9.09;68.87;98125.16;4916672;29;20078;-73
2022/05/17 00:03:58;;;;;;;4.72;1.05;;;;;;;9.13;69.04;98131.59;4915006;29;20058;-71
2022/05/17 00:06:26;;;;;;;1.60;0.90;;;;;;;9.14;69.07;98131.25;4915571;29;20048;-72
2022/05/17 00:08:53;;;;;;;2.58;0.70;;;;;;;9.05;69.63;98130.63;4915324;29;20060;-72
2022/05/17 00:11:20;;;;;;;4.15;1.02;;;;;;;8.84;70.28;98120.91;4916532;29;20499;-72
2022/05/17 00:13:47;;;;;;;1.00;0.70;;;;;;;8.71;70.91;98138.78;4916282;29;20135;-72
2022/05/17 00:16:14;;;;;;;2.33;1.15;;;;;;;8.73;70.69;98131.72;4916499;29;20142;-71
2022/05/17 00:18:42;;;;;;;4.70;1.10;;;;;;;8.75;70.76;98129.41;4916434;29;20515;-73
2022/05/17 00:21:09;;;;;;;2.10;0.88;;;;;;;8.77;70.98;98121.53;4916401;29;20052;-72
2022/05/17 00:23:36;;;;;;;6.43;1.00;;;;;;;8.77;71.16;98117.97;4916018;29;20059;-72
2022/05/17 00:26:06;;;;;;;1.88;0.80;;;;;;;8.83;70.96;98114.56;4916490;29;20558;-74
2022/05/17 00:28:34;;;;;;;7.45;1.02;;;;;;;8.88;70.93;98108.75;4916222;29;20052;-72
2022/05/17 00:31:01;;;;;;;1.90;0.82;;;;;;;8.86;71.46;98105.53;4916095;29;20052;-72
2022/05/17 00:33:28;;;;;;;2.20;1.20;;;;;;;8.93;70.57;98091.06;4916101;29;20056;-73
2022/05/17 00:35:55;;;;;;;2.08;0.90;;;;;;;8.94;70.99;98099.00;4916350;29;20048;-72
2022/05/17 00:38:22;;;;;;;2.50;1.17;;;;;;;8.89;71.22;98090.94;4920211;29;20048;-72
2022/05/17 00:40:49;;;;;;;2.42;0.90;;;;;;;8.91;71.08;98087.81;4935455;29;20052;-73
2022/05/17 00:46:40;;;;;;;2.55;0.90;;;;;;;8.88;71.36;98080.22;4935217;29;20139;-64
2022/05/17 00:49:09;;;;;;;1.27;0.80;;;;;;;8.91;71.48;98079.50;4930120;29;20100;-64
2022/05/17 00:51:38;;;;;;;1.42;0.70;;;;;;;8.90;71.17;98075.94;4916199;29;20084;-64
2022/05/17 00:54:10;;;;;;;1.42;0.82;;;;;;;8.87;71.78;98073.06;4915734;29;20079;-64
2022/05/17 00:56:42;;;;;;;1.63;0.95;;;;;;;8.73;71.73;98079.06;4915842;29;20410;-63
2022/05/17 00:59:10;;;;;;;1.08;0.70;;;;;;;8.63;72.08;98076.81;4915072;29;20428;-72
2022/05/17 01:01:38;;;;;;;0.90;0.75;;;;;;;8.70;72.34;98082.53;4899457;29;20056;-73
2022/05/17 01:04:32;;;;;;;1.38;0.90;;;;;;;8.72;72.26;98074.69;4915908;29;20127;-73
2022/05/17 01:07:11;;;;;;;1.70;0.90;;;;;;;8.65;72.61;98082.00;4914330;29;20166;-72
2022/05/17 01:09:38;;;;;;;2.25;1.17;;;;;;;8.57;72.66;98075.47;4916122;29;20470;-72
2022/05/17 01:12:06;;;;;;;3.10;1.20;;;;;;;8.63;73.24;98070.44;4915885;29;20060;-71
2022/05/17 01:17:18;;;;;;;5.28;1.20;;;;;;;8.48;73.52;98085.91;4915804;29;20094;-72
2022/05/17 01:19:45;;;;;;;1.92;1.30;;;;;;;8.44;73.98;98068.34;4917311;29;20080;-72
2022/05/17 01:22:12;;;;;;;1.90;1.05;;;;;;;8.37;74.51;98065.41;4920547;29;20532;-72
2022/05/17 01:24:39;;;;;;;3.92;1.52;;;;;;;8.37;74.80;98073.72;4938390;29;20058;-73
2022/05/17 01:27:12;;;;;;;2.40;1.60;;;;;;;8.44;74.53;98073.91;4938118;29;20056;-72
2022/05/17 01:29:41;;;;;;;3.45;1.80;;;;;;;8.47;74.60;98072.41;4936941;29;20140;-73
2022/05/17 01:32:10;;;;;;;2.85;1.80;;;;;;;8.48;74.42;98074.81;4937814;29;20138;-73
2022/05/17 01:34:38;;;;;;;2.67;1.65;;;;;;;8.52;74.42;98077.66;4938320;29;20533;-73
2022/05/17 01:37:05;;;;;;;3.10;1.75;;;;;;;8.52;74.55;98069.34;4937640;29;20044;-71
2022/05/17 01:39:33;;;;;;;1.98;1.50;;;;;;;8.53;74.50;98071.78;4938289;29;20061;-73
2022/05/17 01:42:01;;;;;;;1.70;1.20;;;;;;;8.51;74.77;98071.34;4936322;29;20047;-73
2022/05/17 01:44:29;;;;;;;1.27;1.00;;;;;;;8.51;74.30;98065.78;4938446;29;20060;-71
2022/05/17 01:46:56;;;;;;;1.90;1.30;;;;;;;8.54;74.55;98073.41;4937530;29;20051;-72
2022/05/17 01:49:23;;;;;;;3.45;1.33;;;;;;;8.54;74.52;98067.03;4934345;29;20147;-72
2022/05/17 01:51:50;;;;;;;3.03;1.63;;;;;;;8.52;74.57;98064.63;4918973;29;20059;-71
2022/05/17 01:54:16;;;;;;;3.10;1.33;;;;;;;8.50;74.49;98078.03;4918752;29;20131;-73
2022/05/17 01:56:43;;;;;;;2.92;1.73;;;;;;;8.53;74.43;98065.44;4918673;29;20072;-71
2022/05/17 01:59:12;;;;;;;1.77;1.10;;;;;;;8.51;74.44;98063.03;4918471;29;20107;-72
2022/05/17 02:01:40;;;;;;;3.90;1.40;;;;;;;8.51;74.74;98074.13;4918904;29;20051;-72
2022/05/17 02:04:07;;;;;;;3.35;1.48;;;;;;;8.54;74.67;98062.31;4918631;29;20967;-72
2022/05/17 02:06:34;;;;;;;3.25;1.88;;;;;;;8.59;74.36;98070.34;4918527;29;20406;-72
2022/05/17 02:09:01;;;;;;;4.43;1.95;;;;;;;8.60;74.81;98066.44;4925474;29;20044;-72
2022/05/17 02:11:28;;;;;;;2.53;1.70;;;;;;;8.57;74.93;98058.84;4937547;29;20056;-72
2022/05/17 02:13:55;;;;;;;5.03;1.42;;;;;;;8.57;74.79;98067.16;4937504;29;20141;-70
2022/05/17 02:16:22;;;;;;;2.92;1.60;;;;;;;8.57;74.88;98058.03;4937453;29;20052;-69
2022/05/17 02:18:50;;;;;;;2.13;1.45;;;;;;;8.60;74.80;98071.97;4936214;29;20044;-69
2022/05/17 02:21:17;;;;;;;2.90;1.40;;;;;;;8.53;75.37;98055.13;4901177;29;20056;-69
2022/05/17 02:23:44;;;;;;;4.38;1.80;;;;;;;8.54;75.06;98062.31;4931606;29;20058;-69
2022/05/17 02:26:11;;;;;;;4.03;2.28;;;;;;;8.64;74.73;98060.97;4936828;29;20056;-69
2022/05/17 02:28:42;;;;;;;5.55;2.30;;;;;;;8.64;74.62;98064.56;4936931;29;20052;-69
2022/05/17 02:31:11;;;;;;;3.78;1.92;;;;;;;8.62;75.06;98058.56;4936456;29;20571;-69
2022/05/17 02:33:39;;;;;;;5.57;2.00;;;;;;;8.52;75.14;98058.28;4936850;29;20048;-69
2022/05/17 02:36:05;;;;;;;2.53;1.48;;;;;;;8.46;75.41;98054.97;4937014;29;20048;-69
2022/05/17 02:38:33;;;;;;;5.32;1.48;;;;;;;8.46;75.31;98054.97;4936757;29;20059;-69
2022/05/17 02:41:00;;;;;;;3.10;1.60;;;;;;;8.52;75.52;98045.22;4937061;29;20048;-73
2022/05/17 02:43:27;;;;;;;1.60;1.13;;;;;;;8.56;75.58;98053.66;4936857;29;20511;-72
2022/05/17 02:45:54;;;;;;;2.53;1.50;;;;;;;8.56;75.22;98048.88;4936704;29;20078;-73
2022/05/17 02:48:21;;;;;;;2.25;1.35;;;;;;;8.57;75.13;98044.97;4936370;29;20431;-71
2022/05/17 02:50:47;;;;;;;2.30;1.25;;;;;;;8.61;74.63;98051.41;4921596;29;20060;-72
2022/05/17 02:53:15;;;;;;;2.20;1.52;;;;;;;8.60;74.95;98058.13;4917564;29;20052;-72
2022/05/17 02:55:42;;;;;;;2.85;1.83;;;;;;;8.55;75.40;98063.09;4917897;29;20054;-72
2022/05/17 02:58:09;;;;;;;5.32;2.20;;;;;;;8.55;75.20;98047.28;4917476;29;20172;-72
2022/05/17 03:00:36;;;;;;;5.82;2.90;;;;;;;8.66;75.30;98045.59;4917649;29;20056;-72
2022/05/17 03:03:04;;;;;;;3.78;2.58;;;;;;;8.66;74.90;98053.94;4917408;29;20203;-72
2022/05/17 03:05:31;;;;;;;5.20;2.90;;;;;;;8.67;74.74;98052.75;4915839;29;20052;-73
2022/05/17 03:07:57;;;;;;;3.35;2.30;;;;;;;8.67;74.74;98054.72;4917283;29;20412;-73
2022/05/17 03:10:25;;;;;;;2.53;1.80;;;;;;;8.66;75.29;98050.34;4917282;29;20139;-73
2022/05/17 03:12:53;;;;;;;4.18;1.48;;;;;;;8.64;74.95;98045.16;4917040;29;20059;-71
2022/05/17 03:15:20;;;;;;;2.38;1.58;;;;;;;8.69;74.81;98052.41;4917243;29;20143;-72
2022/05/17 03:17:49;;;;;;;2.22;1.42;;;;;;;8.65;75.01;98049.53;4917132;29;20467;-72
2022/05/17 03:20:16;;;;;;;2.90;1.52;;;;;;;8.70;75.26;98043.72;4916906;29;20135;-72
2022/05/17 03:22:43;;;;;;;2.85;1.52;;;;;;;8.69;74.94;98053.22;4917148;29;20055;-72
2022/05/17 03:25:11;;;;;;;2.40;1.60;;;;;;;8.68;75.33;98048.81;4917440;29;20055;-73
2022/05/17 03:27:54;;;;;;;2.15;1.20;;;;;;;8.71;75.14;98048.09;4916905;29;20048;-73
2022/05/17 03:30:21;;;;;;;2.85;1.50;;;;;;;8.75;75.07;98046.25;4917085;29;20503;-71
2022/05/17 03:32:48;;;;;;;4.63;1.50;;;;;;;8.82;74.92;98045.59;4916904;29;20052;-72
2022/05/17 03:35:15;;;;;;;1.73;1.13;;;;;;;8.86;74.70;98047.28;4917033;29;20052;-73
2022/05/17 03:37:42;;;;;;;2.03;1.20;;;;;;;8.88;74.92;98055.25;4917458;29;20059;-72
2022/05/17 03:40:11;;;;;;;1.88;1.20;;;;;;;8.86;74.79;98055.63;4916587;29;20443;-72
2022/05/17 03:42:38;;;;;;;3.15;1.30;;;;;;;8.82;74.62;98051.16;4916638;29;20090;-73
2022/05/17 03:45:07;;;;;;;6.22;1.15;;;;;;;8.85;74.75;98048.47;4917142;29;20056;-72
2022/05/17 03:47:34;;;;;;;2.10;1.27;;;;;;;8.85;74.63;98048.47;4916428;29;20052;-72
2022/05/17 03:50:02;;;;;;;1.67;1.13;;;;;;;8.88;74.56;98044.16;4925249;29;20103;-72
2022/05/17 03:52:31;;;;;;;3.38;1.70;;;;;;;8.95;74.37;98058.22;4935776;29;20078;-72
2022/05/17 03:55:00;;;;;;;2.88;1.70;;;;;;;8.94;74.53;98051.88;4935415;29;20064;-73
2022/05/17 03:57:30;;;;;;;2.67;1.73;;;;;;;8.88;74.10;98061.63;4935599;29;20106;-72
2022/05/17 03:59:57;;;;;;;3.50;2.35;;;;;;;8.92;74.34;98048.63;4935694;29;20147;-73
2022/05/17 04:02:25;;;;;;;3.75;2.22;;;;;;;8.98;74.64;98055.56;4935396;29;20047;-73
2022/05/17 04:04:55;;;;;;;5.22;2.78;;;;;;;8.92;74.85;98051.41;4935695;29;20135;-71
2022/05/17 04:07:23;;;;;;;3.90;2.20;;;;;;;8.75;74.90;98056.50;4935249;29;20458;-72
2022/05/17 04:09:50;;;;;;;3.17;1.92;;;;;;;8.70;75.19;98049.28;4935640;29;20048;-65
2022/05/17 04:12:17;;;;;;;3.90;1.65;;;;;;;8.72;75.41;98051.69;4935501;29;20051;-64
2022/05/17 04:14:45;;;;;;;2.83;1.77;;;;;;;8.81;75.28;98052.31;4935505;29;20066;-65
2022/05/17 04:17:11;;;;;;;2.22;1.15;;;;;;;8.82;74.76;98040.06;4935410;29;20415;-64
2022/05/17 04:19:39;;;;;;;2.47;1.10;;;;;;;8.88;74.81;98042.22;4931913;29;20079;-64
2022/05/17 04:22:11;;;;;;;1.60;1.10;;;;;;;8.88;74.86;98050.53;4917000;29;20151;-65
2022/05/17 04:24:41;;;;;;;1.73;1.20;;;;;;;8.87;74.92;98043.38;4935578;29;20062;-63
2022/05/17 04:27:09;;;;;;;;;;;;;;;8.81;74.82;98044.81;4927954;29;20055;-65
2022/05/17 04:29:37;;;;;;;1.33;0.73;;;;;;;8.83;75.03;98047.22;4935366;29;19926;-65
2022/05/17 04:32:05;;;;;;;3.10;1.17;;;;;;;8.82;74.98;98038.09;4935212;29;20075;-64
2022/05/17 04:34:32;;;;;;;1.60;1.00;;;;;;;8.85;74.58;98040.16;4934101;29;20058;-64
2022/05/17 04:36:59;;;;;;;1.50;0.98;;;;;;;8.96;74.66;98048.75;4935174;29;20515;-64
2022/05/17 04:39:26;;;;;;;2.70;1.20;;;;;;;8.92;74.32;98034.78;4935321;29;20114;-65
2022/05/17 04:41:53;;;;;;;2.30;0.95;;;;;;;8.98;74.63;98038.91;4935360;29;20047;-63
2022/05/17 04:44:20;;;;;;;1.33;0.88;;;;;;;9.00;74.46;98044.88;4934966;29;20187;-65
2022/05/17 04:46:47;;;;;;;2.17;1.10;;;;;;;9.02;74.33;98052.84;4934058;29;20130;-65
2022/05/17 04:49:14;;;;;;;2.45;1.45;;;;;;;8.95;74.98;98050.69;4935500;29;20058;-65
2022/05/17 04:51:41;;;;;;;3.50;0.90;;;;;;;8.93;74.84;98039.19;4935215;29;20507;-64
2022/05/17 04:54:08;;;;;;;2.63;1.05;;;;;;;8.92;75.04;98040.31;4936146;29;20146;-64
2022/05/17 04:56:36;;;;;;;3.20;1.15;;;;;;;8.97;75.22;98040.06;4938779;29;20407;-63
2022/05/17 04:59:03;;;;;;;2.67;0.98;;;;;;;9.01;74.58;98035.44;4938641;29;20392;-65
2022/05/17 05:01:31;;;;;;;1.42;0.90;;;;;;;9.05;74.70;98039.09;4938378;29;20055;-65
2022/05/17 05:03:58;;;;;;;1.85;1.02;;;;;;;9.04;74.57;98042.22;4938573;29;20055;-64
2022/05/17 05:06:27;;;;;;;1.35;0.93;;;;;;;9.02;74.70;98039.81;4938293;29;20134;-65
2022/05/17 05:08:54;;;;;;;1.92;1.20;;;;;;;9.13;74.83;98042.84;4934752;29;20052;-65
2022/05/17 05:11:21;;;;;;;2.20;0.80;;;;;;;9.17;74.76;98052.03;4919756;29;20044;-66
2022/05/17 05:13:48;;;;;;;1.10;0.80;;;;;;;9.14;74.29;98044.44;4918133;29;20516;-64
2022/05/17 05:16:16;;;;;;;1.50;0.90;;;;;;;9.17;74.54;98035.38;4919310;29;20051;-66
2022/05/17 05:18:43;;;;;;;1.75;1.02;;;;;;;9.13;74.36;98046.41;4919265;29;20056;-65
2022/05/17 05:21:15;;;;;;;2.78;1.08;;;;;;;9.11;74.81;98043.19;4919145;29;20052;-64
2022/05/17 05:23:43;;;;;;;1.83;1.00;;;;;;;9.02;75.26;98041.75;4931882;29;20511;-64
2022/05/17 05:26:12;;;;;;;1.05;0.80;;;;;;;9.00;75.19;98057.97;4938482;29;20056;-64
2022/05/17 05:28:40;;;;;;;1.88;1.00;;;;;;;8.98;74.95;98061.09;4938036;29;20056;-65
2022/05/17 05:31:15;;;;;;;1.70;0.93;;;;;;;8.98;75.19;98050.00;4938620;29;20056;-64
2022/05/17 05:33:42;;;;;;;0.80;0.68;;;;;;;9.01;75.29;98060.38;4937650;29;20052;-66
2022/05/17 05:36:10;;;;;;;1.73;0.90;;;;;;;9.07;74.61;98052.59;4938090;29;20478;-65
2022/05/17 05:38:37;;;;;;;3.42;0.90;;;;;;;9.06;74.94;98057.31;4920709;29;20418;-65
2022/05/17 05:41:04;;;;;;;1.17;0.75;;;;;;;9.12;74.48;98053.09;4937801;29;20062;-65
2022/05/17 05:43:31;;;;;;;1.95;0.80;;;;;;;9.14;74.85;98059.13;4937877;29;20150;-65
2022/05/17 05:45:57;;;;;;;1.63;1.02;;;;;;;9.17;75.24;98063.13;4938170;29;20058;-64
2022/05/17 05:48:25;;;;;;;2.17;1.08;;;;;;;9.17;74.71;98063.94;4937423;29;20055;-65
2022/05/17 05:50:53;;;;;;;2.05;1.00;;;;;;;9.30;74.89;98068.22;4937877;29;20055;-65
2022/05/17 05:53:20;;;;;;;1.35;0.82;;;;;;;9.32;74.93;98064.28;4937537;29;20062;-65
2022/05/17 05:55:57;;;;;;;1.20;0.77;;;;;;;9.32;74.70;98069.84;4937858;29;20060;-64
2022/05/17 05:58:36;;;;;;;1.48;0.90;;;;;;;9.28;74.54;98067.78;4932029;29;20177;-65
2022/05/17 06:01:04;;;;;;;1.27;0.85;;;;;;;9.27;74.95;98079.25;4918689;29;20052;-65
2022/05/17 06:03:32;;;;;;;1.92;0.93;;;;;;;9.29;74.76;98072.16;4918279;29;20059;-65
2022/05/17 06:06:00;;;;;;;3.50;1.10;;;;;;;9.29;74.85;98076.91;4918484;29;20060;-65
2022/05/17 06:08:28;;;;;;;1.52;0.77;;;;;;;9.39;74.73;98075.56;4918213;29;20048;-65
2022/05/17 06:10:56;;;;;;;2.63;0.98;;;;;;;9.53;73.99;98078.69;4917587;29;20048;-65
2022/05/17 06:13:23;;;;;;;1.20;0.88;;;;;;;9.62;73.87;98070.94;4918299;29;20518;-65
2022/05/17 06:15:52;;;;;;;4.10;1.08;;;;;;;9.65;73.89;98075.78;4918564;29;20472;-66
2022/05/17 06:18:20;;;;;;;2.90;1.00;;;;;;;9.66;73.95;98082.94;4918209;29;20048;-65
2022/05/17 06:20:53;;;;;;;3.35;0.90;;;;;;;9.68;74.00;98080.59;4918222;29;20288;-65
2022/05/17 06:23:21;;;;;;;2.08;1.00;;;;;;;9.64;73.84;98077.75;4928294;29;20044;-64
2022/05/17 06:25:49;;;;;;;1.35;0.73;;;;;;;9.71;74.35;98077.09;4937489;29;20159;-65
2022/05/17 06:28:16;;;;;;;3.78;1.00;;;;;;;9.72;73.63;98084.25;4937081;29;20444;-65
2022/05/17 06:30:43;;;;;;;2.80;1.00;;;;;;;9.65;74.43;98087.66;4936978;29;20062;-65
2022/05/17 06:33:12;;;;;;;1.92;0.95;;;;;;;9.61;73.52;98077.66;4936949;29;20050;-65
2022/05/17 06:35:41;;;;;;;2.03;1.15;;;;;;;9.53;74.47;98079.47;4936767;29;20066;-65
2022/05/17 06:38:09;;;;;;;5.90;0.85;;;;;;;9.57;74.00;98083.16;4936615;29;20410;-64
2022/05/17 06:40:37;;;;;;;1.92;1.08;;;;;;;9.63;74.41;98070.59;4936652;29;20075;-65
2022/05/17 06:43:04;;;;;;;1.80;1.30;;;;;;;9.67;74.01;98085.34;4933170;29;20044;-66
2022/05/17 06:45:32;;;;;;;6.15;1.27;;;;;;;9.69;73.98;98077.47;4917824;29;20076;-66
2022/05/17 06:48:00;;;;;;;3.47;1.20;;;;;;;9.62;74.25;98084.84;4917085;29;20066;-71
2022/05/17 06:50:29;;;;;;;3.85;1.20;;;;;;;9.56;73.86;98091.84;4929411;29;20405;-70
2022/05/17 06:52:57;;;;;;;3.97;1.10;;;;;;;9.40;74.80;98088.25;4938141;29;20655;-70
2022/05/17 06:55:24;;;;;;;2.63;1.00;;;;;;;9.42;74.72;98085.94;4919341;29;20114;-71
2022/05/17 06:57:51;;;;;;;1.95;1.25;;;;;;;9.47;74.79;98082.91;4935058;29;20498;-72
2022/05/17 07:00:19;;;;;;;2.63;1.50;;;;;;;9.53;75.21;98087.78;4936704;29;20083;-71
2022/05/17 07:02:47;;;;;;;1.63;1.20;;;;;;;9.53;74.88;98098.09;4936149;29;20510;-71
2022/05/17 07:05:14;;;;;;;2.00;1.27;;;;;;;9.61;74.36;98099.84;4937988;29;20514;-71
2022/05/17 07:07:41;;;;;;;4.15;1.20;;;;;;;9.64;73.84;98094.41;4936586;29;20090;-73
2022/05/17 07:13:08;;;;;;;2.83;1.60;;;;;;;9.66;74.15;98111.50;4936056;29;20054;-72
2022/05/17 07:15:42;;;;;;;4.43;1.77;;;;;;;9.71;74.08;98104.88;4936179;29;20463;-71
2022/05/17 07:18:11;;;;;;;2.80;1.60;;;;;;;9.59;74.46;98105.00;4928197;29;20048;-72
2022/05/17 07:20:39;;;;;;;3.15;1.65;;;;;;;9.55;74.63;98117.97;4924014;29;20143;-72
2022/05/17 07:23:06;;;;;;;2.85;1.65;;;;;;;9.51;74.70;98111.53;4925332;29;20055;-71
2022/05/17 07:25:34;;;;;;;2.60;1.90;;;;;;;9.64;74.53;98115.78;4936050;29;20047;-72
2022/05/17 07:28:01;;;;;;;48.20;18.30;;;;;;;9.65;74.75;98114.66;4935624;29;20123;-71
2022/05/17 07:30:28;;;;;;;3.85;2.70;;;;;;;9.57;75.00;98110.09;4935915;29;20051;-71
2022/05/17 07:32:55;;;;;;;3.67;1.70;;;;;;;9.62;74.12;98123.69;4934421;29;20052;-71
2022/05/17 07:35:22;;;;;;;9.23;2.03;;;;;;;9.63;74.14;98112.22;4935583;29;20546;-71
2022/05/17 07:37:49;;;;;;;4.93;1.92;;;;;;;9.66;74.76;98119.84;4935736;29;20056;-72
2022/05/17 07:40:18;;;;;;;3.38;2.00;;;;;;;9.70;74.75;98114.34;4935850;29;20055;-71
2022/05/17 07:42:45;;;;;;;5.05;2.13;;;;;;;9.68;74.38;98123.03;4935956;29;20059;-72
2022/05/17 07:45:14;;;;;;;7.57;2.00;;;;;;;9.62;75.14;98118.16;4935721;29;20419;-70
2022/05/17 07:47:41;;;;;;;3.58;2.05;;;;;;;9.63;74.99;98126.13;4935222;29;20059;-71
2022/05/17 07:50:09;;;;;;;5.22;2.30;;;;;;;9.68;74.96;98127.81;4931305;29;20181;-72
2022/05/17 07:52:36;;;;;;;6.32;2.75;;;;;;;9.65;74.64;98134.09;4916406;29;20427;-72
2022/05/17 07:55:06;;;;;;;4.90;2.22;;;;;;;9.58;74.66;98133.91;4916466;29;20426;-72
2022/05/17 07:57:33;;;;;;;9.43;2.28;;;;;;;9.62;75.03;98129.25;4916386;29;20107;-72
2022/05/17 08:00:00;;;;;;;7.03;2.83;;;;;;;9.73;74.58;98130.28;4916558;29;20052;-70
2022/05/17 08:02:27;;;;;;;6.05;2.20;;;;;;;9.79;74.70;98126.06;4916531;29;20108;-72
2022/05/17 08:04:54;;;;;;;8.52;3.70;;;;;;;9.75;73.88;98123.22;4916499;29;20059;-71
2022/05/17 08:07:21;;;;;;;5.18;2.55;;;;;;;9.81;74.19;98120.97;4916280;29;20433;-71
2022/05/17 08:09:48;;;;;;;4.85;2.88;;;;;;;9.90;73.94;98127.13;4916077;29;20424;-71
2022/05/17 08:12:19;;;;;;;4.35;2.45;;;;;;;10.02;74.02;98113.91;4916147;29;20525;-71
2022/05/17 08:14:48;;;;;;;8.60;3.05;;;;;;;10.37;72.99;98103.59;4916316;29;20082;-71
2022/05/17 08:17:15;;;;;;;10.50;4.85;;;;;;;10.54;72.48;98114.25;4899641;29;20514;-71
2022/05/17 08:19:42;;;;;;;4.78;2.88;;;;;;;10.75;72.25;98114.66;4916011;29;20079;-72
2022/05/17 08:22:15;;;;;;;9.00;2.78;;;;;;;10.98;71.88;98117.47;4916911;29;20048;-71
2022/05/17 08:27:32;;;;;;;8.00;3.25;;;;;;;11.15;71.37;98108.66;4916229;29;20069;-71
2022/05/17 08:30:00;;;;;;;4.70;2.58;;;;;;;10.97;71.61;98113.09;4918284;29;20144;-72
2022/05/17 08:35:14;;;;;;;4.28;2.15;;;;;;;10.72;72.60;98120.97;4919976;29;20047;-71
2022/05/17 08:37:42;;;;;;;4.50;2.92;;;;;;;10.77;71.90;98126.22;4920252;29;20055;-71
2022/05/17 08:40:20;;;;;;;8.35;3.05;;;;;;;10.74;72.27;98132.53;4919987;29;20535;-72
2022/05/17 08:42:54;;;;;;;5.40;2.97;;;;;;;10.72;71.74;98128.53;4919833;29;20055;-71
2022/05/17 08:45:32;;;;;;;5.43;2.42;;;;;;;10.75;71.89;98134.13;4920180;29;20055;-71
2022/05/17 08:47:59;;;;;;;4.75;2.20;;;;;;;10.55;71.99;98140.09;4918878;29;20074;-71
2022/05/17 08:50:37;;;;;;;5.60;2.55;;;;;;;10.48;73.03;98139.94;4918518;29;20142;-70
2022/05/17 08:53:10;;;;;;;4.05;2.50;;;;;;;10.54;72.60;98141.25;4918729;29;20067;-69
2022/05/17 08:55:41;;;;;;;3.72;2.40;;;;;;;10.67;72.65;98137.97;4918639;29;20052;-71
2022/05/17 08:58:17;;;;;;;13.85;6.03;;;;;;;10.72;72.38;98142.44;4918367;29;20472;-71
2022/05/17 09:00:57;;;;;;;3.63;2.22;;;;;;;10.67;72.50;98134.38;4918102;29;20052;-71
2022/05/17 09:03:42;;;;;;;;;;;;;;;10.56;71.88;98138.91;4918548;29;20086;-70
2022/05/17 09:06:58;;;;;;;3.90;1.98;;;;;;;10.65;71.71;98137.50;4918186;29;20341;-71
2022/05/17 09:09:48;;;;;;;3.75;2.30;;;;;;;10.74;72.19;98142.84;4916202;29;20131;-71
2022/05/17 09:12:26;;;;;;;4.65;2.10;;;;;;;10.75;72.15;98144.47;4916065;29;20520;-71
2022/05/17 09:14:58;;;;;;;6.70;2.47;;;;;;;10.66;72.47;98144.69;4916375;29;20055;-72
2022/05/17 09:17:26;;;;;;;7.55;2.30;;;;;;;10.70;72.07;98141.97;4915797;29;20060;-71
2022/05/17 09:19:54;;;;;;;5.85;2.70;;;;;;;10.62;71.80;98138.25;4898452;29;20052;-71
2022/05/17 09:22:22;;;;;;;4.70;2.40;;;;;;;10.64;72.07;98140.66;4899269;29;20416;-72
2022/05/17 09:24:56;;;;;;;6.90;2.72;;;;;;;10.52;72.89;98140.81;4916366;29;20072;-71
2022/05/17 09:27:25;;;;;;;4.00;2.60;;;;;;;10.35;72.29;98152.38;4915907;29;20048;-71
2022/05/17 09:30:18;;;;;;;4.40;2.55;;;;;;;10.35;72.67;98138.47;4915759;29;20125;-70
2022/05/17 09:32:46;;;;;;;4.78;2.63;;;;;;;10.18;72.75;98147.22;4903180;29;20067;-72
2022/05/17 09:35:15;;;;;;;50.70;18.35;;;;;;;10.24;73.21;98145.75;4915621;29;20074;-71
2022/05/17 09:37:46;;;;;;;17.35;4.63;;;;;;;10.32;72.53;98142.78;4915852;29;20056;-73
2022/05/17 09:40:22;;;;;;;6.13;3.28;;;;;;;10.19;72.87;98157.19;4915700;29;20152;-70
2022/05/17 09:43:00;;;;;;;4.85;2.88;;;;;;;10.19;73.09;98159.97;4922332;29;20056;-70
2022/05/17 09:45:58;;;;;;;5.97;3.20;;;;;;;10.20;73.07;98156.00;4936383;29;20055;-71
2022/05/17 09:54:44;;;;;;;7.65;4.30;;;;;;;9.91;73.96;98154.53;4878589;29;20406;-72
2022/05/17 09:57:23;;;;;;;8.20;3.10;;;;;;;9.96;73.44;98150.66;4915043;29;20060;-72
2022/05/17 09:59:54;;;;;;;5.63;3.65;;;;;;;9.93;73.79;98163.31;4918564;29;20147;-71
2022/05/17 10:02:29;;;;;;;5.20;3.20;;;;;;;9.89;73.95;98167.19;4918301;29;20142;-71
2022/05/17 10:04:57;;;;;;;8.00;3.78;;;;;;;9.81;74.78;98162.63;4918488;29;20090;-71
2022/05/17 10:07:30;;;;;;;11.10;5.55;;;;;;;9.87;73.85;98159.22;4917877;29;20095;-71
2022/05/17 10:09:57;;;;;;;8.75;3.90;;;;;;;9.86;73.66;98156.78;4918159;29;20147;-71
2022/05/17 10:12:37;;;;;;;6.80;4.38;;;;;;;9.92;74.21;98160.91;4918193;29;20050;-71
2022/05/17 10:15:10;;;;;;;6.15;4.05;;;;;;;9.91;74.14;98162.06;4917874;29;20056;-71
2022/05/17 10:17:44;;;;;;;6.97;4.68;;;;;;;9.94;73.64;98158.56;4917807;29;20044;-71
2022/05/17 10:20:23;;;;;;;6.90;3.28;;;;;;;9.90;73.81;98166.81;4918051;29;20059;-71
2022/05/17 10:23:28;;;;;;;6.32;3.97;;;;;;;9.82;74.36;98162.25;4923850;29;20056;-71
2022/05/17 10:26:02;;;;;;;12.35;4.72;;;;;;;9.87;74.75;98164.78;4937040;29;20444;-71
2022/05/17 10:28:32;;;;;;;6.75;4.18;;;;;;;9.87;74.11;98169.50;4936564;29;20040;-72
2022/05/17 10:31:26;;;;;;;8.23;4.07;;;;;;;9.84;74.49;98164.69;4937137;29;20576;-71
2022/05/17 10:34:18;;;;;;;7.28;4.00;;;;;;;9.91;74.12;98170.38;4936624;29;20047;-72
2022/05/17 10:36:53;;;;;;;5.93;3.67;;;;;;;9.84;74.56;98165.50;4936801;29;20523;-73
2022/05/17 10:39:49;;;;;;;7.63;4.38;;;;;;;9.79;73.82;98162.16;4936840;29;20048;-72
2022/05/17 10:42:17;;;;;;;7.40;4.43;;;;;;;9.77;75.00;98172.84;4931301;29;20067;-71
2022/05/17 10:44:50;;;;;;;7.30;5.15;;;;;;;9.90;74.33;98168.78;4936693;29;20051;-72
2022/05/17 10:47:43;;;;;;;7.75;4.15;;;;;;;9.93;74.00;98177.22;4936378;29;20079;-71
2022/05/17 10:50:19;;;;;;;5.72;4.05;;;;;;;9.90;74.66;98182.66;4930139;29;20140;-70
2022/05/17 10:53:00;;;;;;;7.57;4.85;;;;;;;9.95;74.82;98176.84;4917655;29;20510;-71
2022/05/17 10:55:39;;;;;;;7.22;4.80;;;;;;;9.92;75.06;98177.56;4917262;29;20419;-70
2022/05/17 10:58:17;;;;;;;9.00;4.75;;;;;;;9.95;74.42;98180.41;4917226;29;20504;-70
2022/05/17 11:00:54;;;;;;;7.85;4.65;;;;;;;10.02;73.84;98182.56;4917836;29;20056;-71
2022/05/17 11:03:49;;;;;;;10.65;4.15;;;;;;;9.98;73.97;98182.47;4917206;29;20504;-72
2022/05/17 11:06:37;;;;;;;8.30;5.00;;;;;;;9.89;74.48;98186.63;4917312;29;20048;-71
2022/05/17 11:09:13;;;;;;;7.78;4.20;;;;;;;9.94;74.41;98186.31;4916905;29;20422;-70
2022/05/17 11:11:57;;;;;;;8.07;4.90;;;;;;;9.90;74.22;98185.44;4917068;29;20074;-71
2022/05/17 11:14:36;;;;;;;6.90;4.28;;;;;;;9.90;73.91;98182.66;4917597;29;20056;-71
2022/05/17 11:17:03;;;;;;;6.57;4.32;;;;;;;9.86;74.12;98190.91;4917325;29;20051;-71
2022/05/17 11:19:42;;;;;;;6.55;4.55;;;;;;;9.88;73.90;98185.00;4917150;29;20059;-71
2022/05/17 11:22:27;;;;;;;8.38;5.20;;;;;;;9.94;73.97;98187.16;4917081;29;20094;-74
2022/05/17 11:25:12;;;;;;;6.63;4.68;;;;;;;10.01;73.97;98192.06;4917119;29;20043;-73
2022/05/17 11:27:59;;;;;;;7.45;4.32;;;;;;;10.05;74.24;98187.38;4916915;29;20052;-73
2022/05/17 11:30:29;;;;;;;8.25;4.95;;;;;;;10.09;73.80;98191.88;4917046;29;20455;-73
2022/05/17 11:33:20;;;;;;;13.88;7.60;;;;;;;10.21;73.46;98194.53;4916878;29;20052;-74
2022/05/17 11:35:50;;;;;;;8.77;4.65;;;;;;;10.23;73.09;98200.56;4917269;29;20060;-72
2022/05/17 11:38:32;;;;;;;8.20;4.85;;;;;;;10.24;73.96;98204.94;4915975;29;20135;-71
2022/05/17 11:41:03;;;;;;;7.05;4.43;;;;;;;10.23;73.51;98206.13;4916868;29;20542;-72
2022/05/17 11:43:42;;;;;;;5.97;4.07;;;;;;;10.28;73.71;98205.84;4916890;29;20070;-72
2022/05/17 11:46:34;;;;;;;6.85;4.43;;;;;;;10.28;73.36;98205.84;4916629;29;20530;-71
2022/05/17 11:49:18;;;;;;;7.03;4.28;;;;;;;10.26;72.98;98207.34;4910903;29;20094;-72
2022/05/17 11:51:57;;;;;;;10.82;6.30;;;;;;;10.39;73.06;98204.09;4916484;29;20160;-72
2022/05/17 11:54:45;;;;;;;11.27;5.22;;;;;;;10.36;72.48;98204.03;4916671;29;20090;-69
2022/05/17 11:57:25;;;;;;;7.65;4.60;;;;;;;10.41;72.75;98201.75;4915596;29;20412;-71
2022/05/17 12:00:27;;;;;;;8.45;4.95;;;;;;;10.40;72.95;98210.47;4916147;29;20050;-71
2022/05/17 12:02:58;;;;;;;10.10;5.60;;;;;;;10.34;72.52;98209.94;4914591;29;20047;-70
2022/05/17 12:05:47;;;;;;;8.45;4.53;;;;;;;10.34;72.87;98220.25;4916721;29;20052;-70
2022/05/17 12:08:36;;;;;;;7.43;4.70;;;;;;;10.35;73.07;98219.06;4914570;29;20051;-71
2022/05/17 12:11:11;;;;;;;7.20;4.40;;;;;;;10.50;72.73;98215.44;4906916;29;20513;-70
2022/05/17 12:14:08;;;;;;;10.40;4.10;;;;;;;10.54;72.15;98213.56;4915190;29;20230;-69
2022/05/17 12:16:43;;;;;;;6.80;3.95;;;;;;;10.51;72.99;98217.06;4916567;29;20466;-69
2022/05/17 12:19:33;;;;;;;8.07;4.18;;;;;;;10.55;72.51;98212.38;4916218;29;20507;-69